Time;durP1;ratioP1;P1;durP2;ratioP2;P2;SDS_P1;SDS_P2;PMS_P1;PMS_P2;Temp;Humidity;BMP_temperature;BMP_pressure;BME280_temperature;BME280_humidity;BME280_pressure;Samples;Min_cycle;Max_cycle;Signal;HPM_P1;HPM_P2
2021/08/15 00:00:40;;;;;;;1.27;1.17;;;22.80;99.90;;;;;;5057705;28;20111;-73
2021/08/15 00:03:07;;;;;;;0.32;0.32;;;22.90;99.90;;;;;;5057530;28;20032;-74
2021/08/15 00:05:33;;;;;;;0.05;0.05;;;23.00;99.90;;;;;;5075765;28;20031;-74
2021/08/15 00:07:59;;;;;;;0.10;0.10;;;23.30;99.90;;;;;;5057243;28;20033;-74
2021/08/15 00:10:25;;;;;;;0.17;0.17;;;23.30;99.90;;;;;;5040751;28;20165;-74
2021/08/15 00:12:51;;;;;;;3.35;0.38;;;23.10;99.90;;;;;;5057224;28;20074;-74
2021/08/15 00:15:17;;;;;;;0.10;0.10;;;23.10;99.90;;;;;;5040712;28;20292;-74
2021/08/15 00:17:43;;;;;;;0.43;0.40;;;23.00;99.90;;;;;;5057108;28;20021;-74
2021/08/15 00:20:10;;;;;;;0.10;0.10;;;23.00;99.90;;;;;;5057124;28;20177;-74
2021/08/15 00:22:38;;;;;;;0.73;0.73;;;23.00;99.90;;;;;;5056925;28;20396;-74
2021/08/15 00:25:08;;;;;;;0.55;0.55;;;23.00;99.90;;;;;;5057217;28;20536;-74
2021/08/15 00:27:35;;;;;;;0.10;0.10;;;23.00;99.90;;;;;;5040299;28;20025;-74
2021/08/15 00:30:00;;;;;;;0.00;0.00;;;23.20;99.90;;;;;;5056882;28;20017;-74
2021/08/15 00:32:26;;;;;;;0.10;0.10;;;23.10;99.90;;;;;;5056835;28;20036;-74
2021/08/15 00:34:52;;;;;;;0.10;0.10;;;23.20;99.90;;;;;;5057001;28;20111;-74
2021/08/15 00:37:17;;;;;;;2.45;2.17;;;23.10;99.90;;;;;;5040288;28;20024;-74
2021/08/15 00:39:43;;;;;;;0.10;0.10;;;23.30;99.90;;;;;;5074682;28;20103;-73
2021/08/15 00:42:09;;;;;;;0.00;0.00;;;23.30;99.90;;;;;;5056770;28;20029;-74
2021/08/15 00:44:35;;;;;;;0.00;0.00;;;23.30;99.90;;;;;;5056624;28;20123;-74
2021/08/15 00:47:01;;;;;;;0.10;0.10;;;23.20;99.90;;;;;;5074755;28;20103;-74
2021/08/15 00:49:27;;;;;;;0.10;0.10;;;23.20;99.90;;;;;;5056486;28;20024;-74
2021/08/15 00:51:52;;;;;;;0.10;0.10;;;23.00;99.90;;;;;;5055692;28;20021;-74
2021/08/15 00:54:19;;;;;;;0.10;0.10;;;22.90;99.90;;;;;;5056533;28;20032;-74
2021/08/15 00:56:54;;;;;;;0.45;0.38;;;22.90;99.90;;;;;;5074572;28;20048;-74
2021/08/15 00:59:21;;;;;;;0.08;0.08;;;22.90;99.90;;;;;;5074192;28;20020;-74
2021/08/15 01:01:51;;;;;;;0.70;0.70;;;22.80;99.90;;;;;;5056285;28;20451;-74
2021/08/15 01:04:18;;;;;;;0.10;0.10;;;22.70;99.90;;;;;;5056367;28;20092;-74
2021/08/15 01:06:45;;;;;;;0.30;0.30;;;22.80;99.90;;;;;;5039995;28;20357;-74
2021/08/15 01:09:10;;;;;;;0.10;0.10;;;22.90;99.90;;;;;;5056223;28;20027;-74
2021/08/15 01:11:36;;;;;;;0.10;0.10;;;22.90;99.90;;;;;;5056237;28;20115;-74
2021/08/15 01:14:06;;;;;;;2.25;2.15;;;22.80;99.90;;;;;;5074166;28;20017;-73
2021/08/15 01:16:34;;;;;;;0.20;0.20;;;22.80;99.90;;;;;;5056259;28;20021;-74
2021/08/15 01:19:00;;;;;;;0.00;0.00;;;22.70;99.90;;;;;;5055757;28;20031;-73
2021/08/15 01:21:27;;;;;;;0.00;0.00;;;22.70;99.90;;;;;;5056298;28;20028;-74
2021/08/15 01:23:52;;;;;;;1.25;0.63;;;22.60;99.90;;;;;;5055763;28;20376;-74
2021/08/15 01:26:20;;;;;;;0.10;0.10;;;22.60;99.90;;;;;;5056140;28;20028;-74
2021/08/15 01:28:51;;;;;;;0.30;0.30;;;22.60;99.90;;;;;;5039146;28;20028;-74
2021/08/15 01:31:17;;;;;;;0.00;0.00;;;22.70;99.90;;;;;;5073927;28;20017;-74
2021/08/15 01:33:43;;;;;;;0.00;0.00;;;22.60;99.90;;;;;;5073563;28;20043;-74
2021/08/15 01:36:14;;;;;;;0.10;0.10;;;22.60;99.90;;;;;;5055841;28;20017;-74
2021/08/15 01:38:40;;;;;;;0.03;0.03;;;22.60;99.90;;;;;;5073584;28;20024;-74
2021/08/15 01:41:07;;;;;;;1.27;1.27;;;22.60;99.90;;;;;;5055767;28;20024;-74
2021/08/15 01:43:53;;;;;;;3.65;3.30;;;22.40;99.90;;;;;;5055313;28;20032;-74
2021/08/15 01:46:21;;;;;;;0.10;0.10;;;22.20;99.90;;;;;;5055792;28;20053;-74
2021/08/15 01:48:46;;;;;;;0.10;0.10;;;22.10;99.90;;;;;;5073282;28;20411;-74
2021/08/15 01:51:15;;;;;;;16.58;4.25;;;22.20;99.90;;;;;;5073556;28;20025;-74
2021/08/15 01:53:41;;;;;;;0.25;0.20;;;22.30;99.90;;;;;;5055451;28;20373;-74
2021/08/15 01:56:07;;;;;;;0.10;0.10;;;22.40;99.90;;;;;;5073494;28;20028;-75
2021/08/15 01:58:32;;;;;;;28.48;21.95;;;22.30;99.90;;;;;;5055157;28;20024;-74
2021/08/15 02:00:58;;;;;;;0.00;0.00;;;22.40;99.90;;;;;;5073485;28;20388;-74
2021/08/15 02:03:24;;;;;;;0.03;0.03;;;22.50;99.90;;;;;;5055088;28;20078;-75
2021/08/15 02:05:50;;;;;;;0.10;0.10;;;22.60;99.90;;;;;;5073048;28;20020;-74
2021/08/15 02:08:16;;;;;;;0.25;0.25;;;22.70;99.90;;;;;;5055075;28;20020;-74
2021/08/15 02:10:42;;;;;;;0.10;0.10;;;22.80;99.90;;;;;;5055475;28;20074;-74
2021/08/15 02:13:08;;;;;;;0.10;0.10;;;22.80;99.90;;;;;;5054980;28;20392;-74
2021/08/15 02:15:34;;;;;;;3.33;3.13;;;22.70;99.90;;;;;;5072812;28;20025;-74
2021/08/15 02:18:00;;;;;;;0.35;0.35;;;22.70;99.90;;;;;;5055353;28;20362;-74
2021/08/15 02:20:27;;;;;;;0.10;0.10;;;22.60;99.90;;;;;;5073255;28;20020;-74
2021/08/15 02:22:54;;;;;;;0.10;0.10;;;22.40;99.90;;;;;;5054938;28;20060;-74
2021/08/15 02:25:21;;;;;;;1.20;0.50;;;22.20;99.90;;;;;;5054753;28;20017;-74
2021/08/15 02:27:48;;;;;;;0.80;0.80;;;22.20;99.90;;;;;;5054816;28;20103;-74
2021/08/15 02:30:16;;;;;;;0.35;0.35;;;22.00;99.90;;;;;;5054899;28;20112;-74
2021/08/15 02:32:42;;;;;;;0.08;0.08;;;22.10;99.90;;;;;;5054911;28;20070;-74
2021/08/15 02:35:10;;;;;;;0.00;0.00;;;22.10;99.90;;;;;;5072436;28;20024;-74
2021/08/15 02:37:37;;;;;;;0.10;0.10;;;22.20;99.90;;;;;;5054633;28;20024;-74
2021/08/15 02:40:05;;;;;;;9.40;6.30;;;22.10;99.90;;;;;;5072376;28;20111;-74
2021/08/15 02:42:33;;;;;;;0.20;0.20;;;22.20;99.90;;;;;;5054670;28;20556;-74
2021/08/15 02:44:59;;;;;;;1.10;0.28;;;22.20;99.90;;;;;;5037635;28;20139;-74
2021/08/15 02:47:25;;;;;;;0.10;0.10;;;22.20;99.90;;;;;;5054552;28;20573;-74
2021/08/15 02:49:51;;;;;;;0.10;0.10;;;22.10;99.90;;;;;;5072141;28;20025;-74
2021/08/15 02:52:17;;;;;;;0.10;0.10;;;22.10;99.90;;;;;;5054391;28;20032;-74
2021/08/15 02:54:43;;;;;;;0.20;0.20;;;22.10;99.90;;;;;;5054330;28;20029;-74
2021/08/15 02:57:09;;;;;;;0.38;0.38;;;22.30;99.90;;;;;;5072344;28;20085;-74
2021/08/15 02:59:41;;;;;;;0.10;0.10;;;22.30;99.90;;;;;;5072223;28;20039;-74
2021/08/15 03:02:09;;;;;;;0.08;0.08;;;22.30;99.90;;;;;;5072178;28;20021;-74
2021/08/15 03:04:35;;;;;;;0.20;0.20;;;22.30;99.90;;;;;;5071970;28;20017;-74
2021/08/15 03:07:01;;;;;;;0.00;0.00;;;22.40;99.90;;;;;;5072253;28;20028;-74
2021/08/15 03:09:26;;;;;;;0.03;0.03;;;22.40;99.90;;;;;;5071953;28;20025;-74
2021/08/15 03:11:52;;;;;;;0.10;0.10;;;22.60;99.90;;;;;;5054182;28;20260;-74
2021/08/15 03:14:18;;;;;;;0.10;0.10;;;22.50;99.90;;;;;;5053521;28;20017;-74
2021/08/15 03:16:44;;;;;;;0.55;0.38;;;22.50;99.90;;;;;;5071885;28;20047;-74
2021/08/15 03:19:10;;;;;;;0.05;0.05;;;22.50;99.90;;;;;;5071736;28;20032;-74
2021/08/15 03:21:36;;;;;;;0.00;0.00;;;22.40;99.90;;;;;;5053895;28;20075;-74
2021/08/15 03:24:02;;;;;;;0.30;0.30;;;22.40;99.90;;;;;;5053898;28;20024;-74
2021/08/15 03:26:28;;;;;;;0.00;0.00;;;22.30;99.90;;;;;;5071918;28;20029;-74
2021/08/15 03:28:54;;;;;;;0.32;0.32;;;22.40;99.90;;;;;;5053816;28;20035;-74
2021/08/15 03:31:20;;;;;;;0.10;0.10;;;22.30;99.90;;;;;;5053765;28;20028;-74
2021/08/15 03:33:46;;;;;;;0.10;0.10;;;22.30;99.90;;;;;;5071788;28;20025;-74
2021/08/15 03:36:12;;;;;;;0.10;0.10;;;22.30;99.90;;;;;;5053685;28;20119;-75
2021/08/15 03:38:37;;;;;;;25.02;2.63;;;22.40;99.90;;;;;;5071728;28;20020;-74
2021/08/15 03:41:03;;;;;;;0.10;0.10;;;22.40;99.90;;;;;;5037101;28;20028;-73
2021/08/15 03:43:29;;;;;;;1.58;1.48;;;22.30;99.90;;;;;;5053785;28;20420;-74
2021/08/15 03:45:55;;;;;;;0.17;0.17;;;22.30;99.90;;;;;;5071587;28;20025;-74
2021/08/15 03:48:21;;;;;;;0.10;0.10;;;22.20;99.90;;;;;;5071676;28;20484;-74
2021/08/15 03:50:47;;;;;;;0.10;0.10;;;22.10;99.90;;;;;;5071661;28;20024;-74
2021/08/15 03:53:12;;;;;;;0.10;0.10;;;22.30;99.90;;;;;;5071678;28;20024;-74
2021/08/15 03:55:38;;;;;;;6.70;0.65;;;22.30;99.90;;;;;;5053645;28;20100;-74
2021/08/15 03:58:05;;;;;;;0.00;0.00;;;22.30;99.90;;;;;;5071481;28;20480;-74
2021/08/15 04:00:32;;;;;;;0.95;0.93;;;22.40;99.90;;;;;;5071398;28;20533;-74
2021/08/15 04:02:58;;;;;;;0.00;0.00;;;22.40;99.90;;;;;;5053795;28;20031;-74
2021/08/15 04:05:23;;;;;;;0.10;0.10;;;22.40;99.90;;;;;;5053498;28;20111;-74
2021/08/15 04:07:49;;;;;;;0.10;0.10;;;22.60;99.90;;;;;;5071386;28;20021;-74
2021/08/15 04:10:15;;;;;;;0.20;0.20;;;22.60;99.90;;;;;;5053398;28;20480;-74
2021/08/15 04:12:41;;;;;;;0.10;0.10;;;22.50;99.90;;;;;;5053352;28;20078;-74
2021/08/15 04:15:07;;;;;;;0.10;0.10;;;22.40;99.90;;;;;;5071305;28;20055;-74
2021/08/15 04:17:33;;;;;;;0.10;0.10;;;22.40;99.90;;;;;;5053417;28;20036;-74
2021/08/15 04:19:59;;;;;;;0.10;0.10;;;22.60;99.90;;;;;;5071214;28;20384;-74
2021/08/15 04:22:25;;;;;;;0.10;0.10;;;22.50;99.90;;;;;;5071305;28;20021;-74
2021/08/15 04:24:50;;;;;;;6.55;2.38;;;22.70;99.90;;;;;;5071268;28;20016;-74
2021/08/15 04:27:16;;;;;;;0.10;0.10;;;22.70;99.90;;;;;;5073980;28;20089;-74
2021/08/15 04:29:42;;;;;;;0.08;0.08;;;22.70;99.90;;;;;;5074923;28;20021;-74
2021/08/15 04:32:08;;;;;;;0.20;0.20;;;22.70;99.90;;;;;;5057021;28;20024;-74
2021/08/15 04:34:34;;;;;;;0.10;0.10;;;22.80;99.90;;;;;;5074861;28;20021;-74
2021/08/15 04:37:01;;;;;;;0.10;0.10;;;22.40;99.90;;;;;;5074772;28;20024;-74
2021/08/15 04:39:28;;;;;;;0.20;0.20;;;22.20;99.90;;;;;;5074724;28;20059;-74
2021/08/15 04:41:53;;;;;;;0.10;0.10;;;22.20;99.90;;;;;;5056670;28;20107;-74
2021/08/15 04:44:19;;;;;;;0.10;0.10;;;22.40;99.90;;;;;;5074459;28;20104;-74
2021/08/15 04:46:45;;;;;;;0.10;0.10;;;22.40;99.90;;;;;;5074681;28;20414;-74
2021/08/15 04:49:10;;;;;;;0.10;0.10;;;22.40;99.90;;;;;;5039956;28;20035;-74
2021/08/15 04:51:36;;;;;;;0.10;0.10;;;22.40;99.90;;;;;;5074581;28;20020;-74
2021/08/15 04:54:02;;;;;;;0.10;0.10;;;22.20;99.90;;;;;;5056676;28;20094;-74
2021/08/15 04:56:28;;;;;;;0.10;0.10;;;22.30;99.90;;;;;;5074450;28;20035;-74
2021/08/15 04:58:53;;;;;;;0.10;0.10;;;22.30;99.90;;;;;;5056329;28;20035;-74
2021/08/15 05:01:19;;;;;;;0.10;0.10;;;22.40;99.90;;;;;;5074348;28;20086;-74
2021/08/15 05:03:45;;;;;;;0.10;0.10;;;22.30;99.90;;;;;;5074272;28;20081;-73
2021/08/15 05:06:10;;;;;;;0.10;0.10;;;22.30;99.90;;;;;;5056304;28;20392;-74
2021/08/15 05:08:36;;;;;;;0.08;0.08;;;22.30;99.90;;;;;;5074290;28;20540;-74
2021/08/15 05:11:02;;;;;;;0.30;0.30;;;22.30;99.90;;;;;;5074228;28;20032;-74
2021/08/15 05:13:28;;;;;;;0.10;0.10;;;22.40;99.90;;;;;;5056486;28;20051;-74
2021/08/15 05:15:55;;;;;;;0.40;0.40;;;22.40;99.90;;;;;;5074026;28;20027;-74
2021/08/15 05:18:21;;;;;;;0.52;0.52;;;22.40;99.90;;;;;;5074196;28;20476;-74
2021/08/15 05:20:47;;;;;;;2.65;1.30;;;22.20;99.90;;;;;;5074005;28;20020;-74
2021/08/15 05:23:13;;;;;;;0.10;0.10;;;22.20;99.90;;;;;;5073882;28;20024;-75
2021/08/15 05:25:39;;;;;;;0.82;0.80;;;22.20;99.90;;;;;;5055994;28;20031;-74
2021/08/15 05:28:05;;;;;;;1.98;0.90;;;22.30;99.90;;;;;;5059609;28;20387;-74
2021/08/15 05:30:34;;;;;;;1.02;0.90;;;22.20;99.90;;;;;;5053816;28;20051;-74
2021/08/15 05:33:00;;;;;;;2.20;1.20;;;22.10;99.90;;;;;;5036223;28;20116;-74
2021/08/15 05:35:26;;;;;;;0.10;0.10;;;22.30;99.90;;;;;;5019242;28;20053;-74
2021/08/15 05:37:51;;;;;;;0.32;0.17;;;22.30;99.90;;;;;;5035074;28;20060;-73
2021/08/15 05:40:17;;;;;;;0.10;0.10;;;22.50;99.90;;;;;;5035799;28;20503;-74
2021/08/15 05:42:44;;;;;;;0.20;0.20;;;22.60;99.90;;;;;;5019140;28;20193;-74
2021/08/15 05:45:10;;;;;;;0.17;0.17;;;22.60;99.90;;;;;;5035715;28;20025;-75
2021/08/15 05:47:36;;;;;;;1.42;0.75;;;22.70;99.90;;;;;;5035609;28;20049;-73
2021/08/15 05:50:04;;;;;;;0.10;0.10;;;22.70;99.90;;;;;;5053556;28;20082;-75
2021/08/15 05:52:30;;;;;;;0.10;0.10;;;22.70;99.90;;;;;;5035768;28;20503;-74
2021/08/15 05:54:56;;;;;;;0.25;0.25;;;22.70;99.90;;;;;;5053462;28;20021;-74
2021/08/15 05:57:22;;;;;;;0.43;0.43;;;22.80;99.90;;;;;;5053266;28;20033;-74
2021/08/15 05:59:48;;;;;;;0.10;0.10;;;22.90;99.90;;;;;;5035339;28;20392;-74
2021/08/15 06:02:13;;;;;;;3.40;1.75;;;22.90;99.90;;;;;;5035322;28;20033;-75
2021/08/15 06:04:39;;;;;;;0.10;0.10;;;22.90;99.90;;;;;;5035379;28;20023;-75
2021/08/15 06:07:05;;;;;;;0.10;0.10;;;23.00;99.90;;;;;;5035361;28;20025;-75
2021/08/15 06:09:31;;;;;;;0.40;0.40;;;23.10;99.90;;;;;;5053269;28;20075;-75
2021/08/15 06:11:57;;;;;;;0.10;0.10;;;23.10;99.90;;;;;;5053067;28;20028;-75
2021/08/15 06:14:22;;;;;;;0.13;0.13;;;23.20;99.90;;;;;;5053075;28;20024;-74
2021/08/15 06:16:48;;;;;;;0.10;0.10;;;23.20;99.90;;;;;;5053030;28;20032;-75
2021/08/15 06:19:14;;;;;;;0.00;0.00;;;23.40;99.90;;;;;;5053087;28;20026;-75
2021/08/15 06:21:40;;;;;;;0.08;0.08;;;23.50;99.90;;;;;;5053073;28;20020;-75
2021/08/15 06:24:05;;;;;;;0.00;0.00;;;23.70;99.90;;;;;;5035178;28;20076;-75
2021/08/15 06:26:32;;;;;;;0.13;0.13;;;23.90;99.90;;;;;;5052804;28;20036;-75
2021/08/15 06:28:58;;;;;;;0.13;0.10;;;24.00;99.90;;;;;;5052763;28;20139;-77
2021/08/15 06:31:24;;;;;;;0.10;0.10;;;24.00;99.90;;;;;;5035024;28;20070;-74
2021/08/15 06:33:51;;;;;;;0.00;0.00;;;24.10;99.90;;;;;;5034494;28;20021;-74
2021/08/15 06:36:17;;;;;;;0.10;0.10;;;24.10;99.90;;;;;;5034982;28;20025;-74
2021/08/15 06:38:43;;;;;;;0.10;0.10;;;24.20;99.90;;;;;;5052167;28;20516;-74
2021/08/15 06:41:09;;;;;;;0.30;0.20;;;24.30;99.90;;;;;;5052642;28;20159;-75
2021/08/15 06:43:35;;;;;;;4.95;1.30;;;24.40;99.90;;;;;;5052248;28;20028;-74
2021/08/15 06:46:02;;;;;;;0.90;0.60;;;24.40;99.90;;;;;;5034562;28;20035;-74
2021/08/15 06:48:27;;;;;;;0.45;0.45;;;24.40;99.90;;;;;;5018317;28;20025;-74
2021/08/15 06:50:57;;;;;;;0.10;0.10;;;24.40;99.90;;;;;;5017277;28;20071;-74
2021/08/15 06:53:24;;;;;;;0.00;0.00;;;24.50;99.90;;;;;;5034325;28;20033;-74
2021/08/15 06:55:49;;;;;;;0.10;0.10;;;24.60;99.90;;;;;;5052281;28;20502;-74
2021/08/15 06:58:16;;;;;;;0.10;0.10;;;24.60;99.90;;;;;;5052128;28;20025;-74
2021/08/15 07:00:43;;;;;;;0.00;0.00;;;24.80;99.90;;;;;;5052278;28;20025;-74
2021/08/15 07:03:08;;;;;;;0.00;0.00;;;25.00;99.90;;;;;;5034404;28;20043;-74
2021/08/15 07:05:34;;;;;;;0.13;0.13;;;25.10;99.90;;;;;;5052262;28;20095;-74
2021/08/15 07:08:00;;;;;;;0.20;0.20;;;25.30;99.90;;;;;;5034357;28;20389;-74
2021/08/15 07:10:27;;;;;;;0.10;0.10;;;25.30;99.90;;;;;;5052005;28;20032;-75
2021/08/15 07:12:54;;;;;;;0.52;0.38;;;25.50;99.90;;;;;;5051853;28;20108;-74
2021/08/15 07:15:21;;;;;;;0.90;0.82;;;25.70;99.90;;;;;;5017702;28;20031;-74
2021/08/15 07:17:47;;;;;;;0.15;0.15;;;25.80;99.90;;;;;;5051948;28;20025;-74
2021/08/15 07:20:14;;;;;;;1.85;1.75;;;25.90;99.90;;;;;;5051889;28;20033;-75
2021/08/15 07:22:39;;;;;;;0.08;0.08;;;25.90;99.90;;;;;;5034169;28;20028;-74
2021/08/15 07:25:06;;;;;;;15.18;6.25;;;25.90;99.90;;;;;;5017730;28;20028;-74
2021/08/15 07:27:34;;;;;;;0.35;0.35;;;26.00;99.10;;;;;;5033976;28;20490;-74
2021/08/15 07:30:00;;;;;;;0.00;0.00;;;25.90;99.20;;;;;;5051942;28;20086;-74
2021/08/15 07:32:25;;;;;;;0.00;0.00;;;26.00;98.90;;;;;;5033920;28;20029;-74
2021/08/15 07:34:51;;;;;;;0.20;0.20;;;26.30;98.90;;;;;;5051857;28;20031;-74
2021/08/15 07:37:17;;;;;;;1.30;1.05;;;26.50;98.40;;;;;;5033907;28;20485;-74
2021/08/15 07:39:43;;;;;;;0.00;0.00;;;26.70;96.70;;;;;;5051574;28;20032;-74
2021/08/15 07:42:09;;;;;;;0.25;0.25;;;26.80;96.10;;;;;;5033758;28;20029;-74
2021/08/15 07:44:35;;;;;;;1.10;1.08;;;26.90;96.00;;;;;;5033614;28;20032;-75
2021/08/15 07:47:00;;;;;;;1.55;1.42;;;27.00;95.30;;;;;;5033896;28;20544;-75
2021/08/15 07:49:26;;;;;;;5.93;5.47;;;27.10;94.30;;;;;;5051546;28;20100;-74
2021/08/15 07:51:52;;;;;;;0.00;0.00;;;26.90;95.10;;;;;;5051758;28;20485;-75
2021/08/15 07:54:18;;;;;;;0.00;0.00;;;26.90;94.90;;;;;;5051377;28;20029;-74
2021/08/15 07:56:43;;;;;;;0.00;0.00;;;27.00;94.10;;;;;;5051628;28;20453;-75
2021/08/15 07:59:10;;;;;;;0.10;0.10;;;27.10;93.60;;;;;;5051401;28;20086;-75
2021/08/15 08:01:37;;;;;;;0.40;0.30;;;27.40;93.50;;;;;;5035544;28;20056;-74
2021/08/15 08:04:03;;;;;;;2.90;2.28;;;27.40;92.90;;;;;;5055470;28;20577;-75
2021/08/15 08:06:29;;;;;;;2.13;0.63;;;27.50;92.30;;;;;;5037716;28;20021;-74
2021/08/15 08:08:54;;;;;;;0.20;0.20;;;27.40;92.40;;;;;;5020797;28;20032;-75
2021/08/15 08:11:20;;;;;;;3.65;3.42;;;27.60;92.40;;;;;;5055400;28;20059;-75
2021/08/15 08:13:47;;;;;;;0.80;0.70;;;27.80;91.50;;;;;;5037415;28;20025;-75
2021/08/15 08:16:14;;;;;;;0.10;0.10;;;27.80;91.30;;;;;;5055563;28;20077;-75
2021/08/15 08:18:40;;;;;;;6.93;1.35;;;28.00;91.00;;;;;;5055107;28;20028;-75
2021/08/15 08:21:07;;;;;;;0.40;0.40;;;28.00;90.10;;;;;;5037463;28;20035;-75
2021/08/15 08:23:34;;;;;;;0.75;0.75;;;28.10;89.50;;;;;;5054941;28;20029;-74
2021/08/15 08:26:00;;;;;;;0.00;0.00;;;28.30;89.90;;;;;;5037186;28;20033;-75
2021/08/15 08:28:25;;;;;;;2.92;2.38;;;28.50;89.30;;;;;;5036918;28;20021;-74
2021/08/15 08:30:51;;;;;;;6.13;1.65;;;28.50;87.10;;;;;;5037064;28;20028;-74
2021/08/15 08:33:17;;;;;;;0.00;0.00;;;28.30;87.50;;;;;;5037171;28;20492;-74
2021/08/15 08:35:43;;;;;;;0.00;0.00;;;28.50;88.00;;;;;;5037126;28;20353;-75
2021/08/15 08:38:09;;;;;;;0.00;0.00;;;28.90;86.60;;;;;;5036960;28;20029;-75
2021/08/15 08:40:35;;;;;;;0.00;0.00;;;29.00;86.70;;;;;;5037068;28;20021;-75
2021/08/15 08:43:01;;;;;;;0.98;0.85;;;29.30;84.80;;;;;;5054767;28;20480;-76
2021/08/15 08:45:28;;;;;;;0.00;0.00;;;29.40;82.60;;;;;;5055028;28;20028;-75
2021/08/15 08:47:55;;;;;;;0.00;0.00;;;29.50;83.00;;;;;;5036741;28;20021;-75
2021/08/15 08:50:22;;;;;;;0.10;0.10;;;29.50;81.10;;;;;;5054578;28;20028;-75
2021/08/15 08:52:48;;;;;;;4.78;4.18;;;29.50;81.00;;;;;;5054706;28;20100;-75
2021/08/15 08:55:15;;;;;;;0.20;0.17;;;29.50;79.30;;;;;;5036489;28;20064;-75
2021/08/15 08:57:42;;;;;;;0.00;0.00;;;29.60;80.60;;;;;;5036836;28;20055;-75
2021/08/15 09:00:08;;;;;;;2.00;1.25;;;30.10;80.50;;;;;;5036632;28;20116;-75
2021/08/15 09:02:37;;;;;;;1.63;0.30;;;30.20;77.70;;;;;;5054513;28;20052;-74
2021/08/15 09:05:04;;;;;;;0.00;0.00;;;30.60;76.70;;;;;;5054280;28;20017;-75
2021/08/15 09:07:41;;;;;;;0.32;0.32;;;30.80;76.10;;;;;;5036439;28;20362;-75
2021/08/15 09:10:10;;;;;;;1.75;1.65;;;31.00;75.00;;;;;;5054272;28;20504;-75
2021/08/15 09:12:48;;;;;;;1.67;1.58;;;31.10;74.20;;;;;;5053483;28;20485;-75
2021/08/15 09:15:17;;;;;;;0.95;0.90;;;31.10;74.80;;;;;;5054212;28;20373;-75
2021/08/15 09:17:44;;;;;;;11.05;1.92;;;31.10;73.80;;;;;;5036300;28;20492;-75
2021/08/15 09:20:22;;;;;;;0.15;0.15;;;31.50;73.00;;;;;;5054205;28;20025;-74
2021/08/15 09:22:48;;;;;;;0.00;0.00;;;31.60;72.20;;;;;;5036267;28;20033;-75
2021/08/15 09:25:21;;;;;;;0.00;0.00;;;31.80;70.00;;;;;;5053940;28;20131;-74
2021/08/15 09:27:56;;;;;;;0.00;0.00;;;32.10;69.20;;;;;;5036137;28;20021;-75
2021/08/15 09:30:32;;;;;;;0.00;0.00;;;32.30;67.70;;;;;;5053890;28;20234;-75
2021/08/15 09:32:59;;;;;;;0.00;0.00;;;32.40;66.90;;;;;;5054089;28;20021;-75
2021/08/15 09:35:35;;;;;;;1.35;0.75;;;32.50;66.50;;;;;;5019413;28;20025;-75
2021/08/15 09:38:16;;;;;;;0.00;0.00;;;32.20;66.40;;;;;;5053805;28;20025;-75
2021/08/15 09:40:43;;;;;;;0.00;0.00;;;32.60;65.90;;;;;;5035913;28;20021;-74
2021/08/15 09:43:21;;;;;;;0.75;0.75;;;32.70;64.90;;;;;;5036261;28;20552;-75
2021/08/15 09:45:54;;;;;;;0.00;0.00;;;32.90;64.60;;;;;;5053584;28;20451;-74
2021/08/15 09:48:33;;;;;;;0.88;0.88;;;33.00;64.20;;;;;;5035830;28;20078;-74
2021/08/15 09:51:18;;;;;;;1.92;1.45;;;33.30;63.50;;;;;;5035781;28;20017;-75
2021/08/15 09:53:45;;;;;;;0.50;0.50;;;33.30;62.20;;;;;;5053737;28;20032;-75
2021/08/15 09:56:12;;;;;;;0.88;0.60;;;33.30;64.00;;;;;;5053462;28;20032;-74
2021/08/15 09:58:38;;;;;;;1.10;0.55;;;33.70;62.80;;;;;;5053404;28;20025;-75
2021/08/15 10:01:07;;;;;;;0.93;0.85;;;33.90;63.20;;;;;;5018959;28;20116;-75
2021/08/15 10:03:37;;;;;;;0.22;0.22;;;34.10;62.40;;;;;;5035501;28;20032;-75
2021/08/15 10:06:04;;;;;;;0.17;0.17;;;34.00;62.40;;;;;;5053258;28;20021;-75
2021/08/15 10:08:30;;;;;;;2.85;2.13;;;34.50;60.30;;;;;;5035485;28;20485;-75
2021/08/15 10:10:57;;;;;;;0.00;0.00;;;34.50;59.70;;;;;;5053302;28;20027;-75
2021/08/15 10:13:23;;;;;;;0.20;0.13;;;34.70;59.50;;;;;;5053227;28;20060;-75
2021/08/15 10:16:10;;;;;;;0.55;0.55;;;34.80;58.80;;;;;;5035227;28;20031;-74
2021/08/15 10:18:41;;;;;;;0.20;0.20;;;34.60;58.50;;;;;;5035130;28;20032;-74
2021/08/15 10:21:18;;;;;;;0.47;0.43;;;34.50;58.30;;;;;;5035164;28;20032;-74
2021/08/15 10:23:46;;;;;;;0.25;0.25;;;34.20;58.70;;;;;;5052809;28;20025;-74
2021/08/15 10:26:26;;;;;;;0.85;0.38;;;33.70;59.20;;;;;;5035123;28;20029;-74
2021/08/15 10:28:54;;;;;;;0.20;0.20;;;33.90;59.30;;;;;;5052854;28;20036;-74
2021/08/15 10:31:20;;;;;;;0.43;0.43;;;34.20;59.30;;;;;;5035064;28;20021;-74
2021/08/15 10:33:53;;;;;;;8.10;5.07;;;34.50;58.40;;;;;;5052673;28;20037;-74
2021/08/15 10:36:20;;;;;;;0.03;0.03;;;34.90;56.90;;;;;;5034710;28;20316;-74
2021/08/15 10:38:48;;;;;;;2.05;0.40;;;35.30;56.20;;;;;;5052639;28;20017;-74
2021/08/15 10:41:34;;;;;;;1.30;1.20;;;35.30;55.70;;;;;;5052498;28;20028;-74
2021/08/15 10:43:59;;;;;;;0.90;0.90;;;35.50;55.20;;;;;;5052326;28;20101;-75
2021/08/15 10:46:26;;;;;;;0.93;0.93;;;35.30;55.80;;;;;;5052611;28;20104;-75
2021/08/15 10:49:00;;;;;;;2.00;1.85;;;35.50;55.70;;;;;;5052384;28;20430;-74
2021/08/15 10:51:49;;;;;;;0.10;0.10;;;35.30;55.60;;;;;;5052444;28;20025;-74
2021/08/15 10:54:27;;;;;;;0.00;0.00;;;34.50;56.80;;;;;;5052466;28;20043;-74
2021/08/15 10:57:02;;;;;;;7.03;2.13;;;34.40;57.90;;;;;;5034491;28;20032;-74
2021/08/15 10:59:42;;;;;;;0.35;0.35;;;34.90;56.30;;;;;;5052549;28;20052;-75
2021/08/15 11:02:09;;;;;;;0.00;0.00;;;35.20;56.00;;;;;;5034393;28;20083;-75
2021/08/15 11:04:35;;;;;;;0.60;0.60;;;34.70;56.00;;;;;;5017991;28;20029;-74
2021/08/15 11:07:01;;;;;;;0.08;0.08;;;34.50;57.50;;;;;;5034521;28;20080;-74
2021/08/15 11:09:54;;;;;;;4.50;4.10;;;34.80;56.60;;;;;;5034280;28;20021;-74
2021/08/15 11:12:20;;;;;;;0.50;0.28;;;35.30;54.90;;;;;;5034359;28;20028;-74
2021/08/15 11:14:58;;;;;;;0.57;0.40;;;35.30;55.40;;;;;;5034128;28;20021;-74
2021/08/15 11:17:24;;;;;;;8.75;0.85;;;35.70;54.20;;;;;;5017798;28;20021;-74
2021/08/15 11:19:51;;;;;;;0.05;0.05;;;36.00;53.30;;;;;;5034018;28;20124;-74
2021/08/15 11:22:20;;;;;;;0.20;0.20;;;35.70;53.30;;;;;;5034103;28;20032;-74
2021/08/15 11:24:45;;;;;;;0.85;0.85;;;35.70;53.30;;;;;;5034201;28;20119;-75
2021/08/15 11:27:11;;;;;;;0.25;0.13;;;35.90;51.80;;;;;;5051920;28;20049;-74
2021/08/15 11:29:38;;;;;;;0.98;0.88;;;36.10;50.40;;;;;;5051701;28;20044;-74
2021/08/15 11:32:09;;;;;;;1.55;0.77;;;36.30;50.40;;;;;;5051807;28;20720;-74
2021/08/15 11:34:35;;;;;;;0.52;0.52;;;36.10;50.90;;;;;;5033759;28;20388;-74
2021/08/15 11:37:03;;;;;;;0.60;0.60;;;35.80;49.90;;;;;;5051165;28;20021;-74
2021/08/15 11:39:35;;;;;;;0.00;0.00;;;35.70;50.50;;;;;;5017831;28;20021;-74
2021/08/15 11:42:03;;;;;;;1.35;1.25;;;36.00;50.60;;;;;;5033781;28;20021;-75
2021/08/15 11:44:51;;;;;;;1.10;0.52;;;36.00;50.20;;;;;;5051483;28;20041;-74
2021/08/15 11:47:18;;;;;;;0.65;0.43;;;36.10;50.00;;;;;;5033732;28;20021;-74
2021/08/15 11:49:44;;;;;;;1.80;1.65;;;36.00;50.10;;;;;;5051339;28;20021;-74
2021/08/15 11:52:36;;;;;;;0.75;0.75;;;36.00;50.40;;;;;;5050626;28;20464;-74
2021/08/15 11:55:03;;;;;;;0.70;0.70;;;36.10;49.50;;;;;;5050159;28;20098;-74
2021/08/15 11:57:44;;;;;;;3.20;0.75;;;36.10;49.10;;;;;;5051484;28;20083;-74
2021/08/15 12:00:10;;;;;;;0.38;0.38;;;36.20;49.10;;;;;;5017482;28;20021;-75
2021/08/15 12:02:36;;;;;;;0.45;0.45;;;36.20;49.90;;;;;;5051404;28;20032;-75
2021/08/15 12:05:02;;;;;;;0.45;0.40;;;36.10;48.80;;;;;;5033755;28;20025;-74
2021/08/15 12:07:28;;;;;;;0.00;0.00;;;36.00;49.30;;;;;;5051784;28;20029;-74
2021/08/15 12:10:23;;;;;;;0.00;0.00;;;35.70;48.20;;;;;;5033522;28;20028;-75
2021/08/15 12:13:10;;;;;;;2.95;1.88;;;35.70;49.00;;;;;;5033467;28;20029;-75
2021/08/15 12:15:37;;;;;;;0.15;0.15;;;35.60;49.90;;;;;;5036533;28;20025;-75
2021/08/15 12:18:03;;;;;;;0.10;0.10;;;35.50;48.80;;;;;;5070560;28;20032;-74
2021/08/15 12:20:29;;;;;;;5.70;1.40;;;35.40;48.70;;;;;;5051442;28;20021;-74
2021/08/15 12:23:05;;;;;;;0.10;0.10;;;35.40;48.50;;;;;;5051258;28;20025;-74
2021/08/15 12:25:31;;;;;;;2.92;0.63;;;35.60;48.40;;;;;;5041821;28;20036;-74
2021/08/15 12:28:07;;;;;;;0.10;0.10;;;35.30;48.60;;;;;;5051018;28;20472;-74
2021/08/15 12:30:33;;;;;;;0.13;0.13;;;35.40;49.50;;;;;;5033420;28;20022;-75
2021/08/15 12:33:02;;;;;;;1.08;1.05;;;35.00;49.00;;;;;;5033245;28;20021;-74
2021/08/15 12:35:28;;;;;;;0.10;0.10;;;35.10;48.90;;;;;;5032509;28;20460;-74
2021/08/15 12:37:54;;;;;;;0.00;0.00;;;34.90;49.50;;;;;;5050056;28;20035;-74
2021/08/15 12:40:29;;;;;;;1.92;1.67;;;34.80;50.10;;;;;;5050680;28;20036;-74
2021/08/15 12:42:57;;;;;;;0.20;0.20;;;34.20;50.10;;;;;;5051092;28;20028;-74
2021/08/15 12:45:35;;;;;;;0.10;0.10;;;34.30;50.50;;;;;;5033205;28;20488;-74
2021/08/15 12:48:03;;;;;;;1.17;0.40;;;34.20;49.80;;;;;;5051735;28;20017;-75